createdAt,value
2018-08-20T00:01:07.343Z,20.13
2018-08-20T00:03:39.534Z,20.17
2018-08-20T00:06:08.260Z,20.11
2018-08-20T00:08:38.108Z,19.89
2018-08-20T00:11:06.856Z,19.81
2018-08-20T00:13:35.569Z,19.80
2018-08-20T00:16:04.329Z,19.98
2018-08-20T00:23:24.381Z,19.82
2018-08-20T00:25:56.055Z,19.97
2018-08-20T00:28:24.838Z,19.86
2018-08-20T00:30:53.617Z,19.90
2018-08-20T00:33:22.446Z,19.88
2018-08-20T00:35:51.150Z,19.82
2018-08-20T00:38:19.895Z,19.88
2018-08-20T00:40:48.619Z,20.01
2018-08-20T00:43:17.442Z,19.97
2018-08-20T00:45:46.196Z,20.08
2018-08-20T00:48:15.008Z,20.04
2018-08-20T00:50:43.686Z,19.93
2018-08-20T00:53:12.413Z,20.13
2018-08-20T00:55:41.068Z,20.15
2018-08-20T00:58:09.798Z,20.22
2018-08-20T01:00:38.541Z,20.27
2018-08-20T01:03:07.392Z,20.33
2018-08-20T01:05:36.172Z,20.26
2018-08-20T01:08:05.012Z,20.07
2018-08-20T01:10:33.728Z,20.03
2018-08-20T01:13:02.500Z,20.02
2018-08-20T01:15:31.207Z,19.93
2018-08-20T01:17:59.958Z,19.96
2018-08-20T01:20:28.660Z,19.85
2018-08-20T01:22:57.388Z,19.76
2018-08-20T01:25:26.163Z,19.74
2018-08-20T01:27:55.056Z,19.68
2018-08-20T01:30:23.806Z,19.63
2018-08-20T01:32:56.469Z,19.57
2018-08-20T01:35:27.863Z,19.40
2018-08-20T01:37:56.757Z,19.46
2018-08-20T01:40:25.808Z,19.37
2018-08-20T01:42:54.525Z,19.24
2018-08-20T01:45:23.294Z,19.31
2018-08-20T01:47:51.980Z,19.25
2018-08-20T01:50:20.691Z,19.21
2018-08-20T01:52:49.437Z,19.24
2018-08-20T01:55:18.206Z,19.28
2018-08-20T01:57:46.995Z,19.30
2018-08-20T02:00:15.729Z,19.28
2018-08-20T02:02:48.554Z,19.22
2018-08-20T02:05:17.308Z,19.23
2018-08-20T02:07:46.090Z,19.17
2018-08-20T02:10:14.855Z,19.17
2018-08-20T02:12:44.276Z,19.13
2018-08-20T02:15:13.082Z,19.14
2018-08-20T02:17:41.864Z,19.23
2018-08-20T02:20:10.714Z,19.16
2018-08-20T02:22:39.403Z,19.23
2018-08-20T02:25:08.173Z,19.16
2018-08-20T02:27:36.937Z,19.16
2018-08-20T02:30:08.065Z,19.16
2018-08-20T02:32:37.098Z,19.19
2018-08-20T02:35:06.397Z,19.17
2018-08-20T02:37:40.236Z,19.20
2018-08-20T02:40:09.161Z,19.13
2018-08-20T02:42:38.138Z,19.10
2018-08-20T02:45:10.008Z,19.04
2018-08-20T02:47:40.184Z,19.04
2018-08-20T02:50:09.446Z,19.00
2018-08-20T02:52:38.214Z,19.00
2018-08-20T02:55:07.434Z,18.93
2018-08-20T02:57:36.190Z,18.78
2018-08-20T03:00:08.184Z,18.65
2018-08-20T03:02:36.972Z,18.60
2018-08-20T03:05:06.023Z,18.54
2018-08-20T03:07:34.819Z,18.57
2018-08-20T03:10:03.739Z,18.56
2018-08-20T03:12:32.539Z,18.56
2018-08-20T03:15:01.281Z,18.45
2018-08-20T03:17:30.079Z,18.33
2018-08-20T03:19:58.814Z,18.28
2018-08-20T03:22:27.564Z,18.31
2018-08-20T03:24:56.278Z,18.33
2018-08-20T03:27:24.997Z,18.30
2018-08-20T03:29:53.724Z,18.28
2018-08-20T03:32:22.402Z,18.29
2018-08-20T03:34:51.095Z,18.31
2018-08-20T03:37:19.855Z,18.33
2018-08-20T03:39:48.565Z,18.41
2018-08-20T03:42:17.267Z,18.37
2018-08-20T03:44:45.964Z,18.26
2018-08-20T03:47:14.682Z,18.21
2018-08-20T03:49:43.395Z,18.23
2018-08-20T03:52:12.111Z,18.28
2018-08-20T03:54:40.821Z,18.25
2018-08-20T03:57:09.576Z,18.35
2018-08-20T03:59:38.483Z,18.38
2018-08-20T04:02:08.068Z,18.46
2018-08-20T04:04:36.858Z,18.47
2018-08-20T04:07:06.943Z,18.48
2018-08-20T04:09:36.154Z,18.47
2018-08-20T04:12:05.411Z,18.49
2018-08-20T04:14:34.183Z,18.46
2018-08-20T04:17:02.975Z,18.45
2018-08-20T04:19:31.719Z,18.40
2018-08-20T04:22:00.502Z,18.34
2018-08-20T04:24:29.238Z,18.34
2018-08-20T04:26:57.991Z,18.36
2018-08-20T04:29:26.759Z,18.40
2018-08-20T04:31:55.482Z,18.40
2018-08-20T04:34:24.181Z,18.44
2018-08-20T04:36:52.882Z,18.45
2018-08-20T04:39:21.551Z,18.51
2018-08-20T04:41:50.328Z,18.54
2018-08-20T04:44:21.012Z,18.59
2018-08-20T04:46:49.768Z,18.65
2018-08-20T04:49:18.463Z,18.72
2018-08-20T04:51:47.205Z,18.70
2018-08-20T04:54:46.860Z,18.72
2018-08-20T04:57:15.923Z,18.77
2018-08-20T04:59:44.717Z,18.78
2018-08-20T05:02:13.487Z,18.88
2018-08-20T05:04:42.191Z,18.90
2018-08-20T05:07:10.929Z,18.91
2018-08-20T05:09:39.624Z,18.97
2018-08-20T05:12:08.363Z,18.97
2018-08-20T05:14:37.087Z,19.02
2018-08-20T05:17:05.987Z,19.08
2018-08-20T05:19:34.674Z,19.10
2018-08-20T05:22:03.416Z,19.18
2018-08-20T05:24:32.099Z,19.28
2018-08-20T05:27:00.872Z,19.34
2018-08-20T05:29:29.683Z,19.44
2018-08-20T05:31:58.400Z,19.50
2018-08-20T05:34:27.148Z,19.60
2018-08-20T05:36:57.471Z,19.67
2018-08-20T05:39:26.296Z,19.80
2018-08-20T05:41:55.122Z,19.84
2018-08-20T05:44:23.873Z,19.91
2018-08-20T05:46:52.658Z,19.95
2018-08-20T05:49:21.372Z,20.08
2018-08-20T05:51:50.196Z,20.17
2018-08-20T05:54:19.080Z,20.34
2018-08-20T05:56:47.818Z,20.40
2018-08-20T05:59:16.700Z,20.52
2018-08-20T06:01:45.408Z,20.56
2018-08-20T06:04:14.216Z,20.69
2018-08-20T06:06:43.039Z,20.77
2018-08-20T06:09:12.110Z,20.87
2018-08-20T06:11:40.943Z,20.87
2018-08-20T06:14:09.761Z,20.98
2018-08-20T06:16:38.542Z,21.09
2018-08-20T06:19:07.365Z,21.19
2018-08-20T06:21:36.211Z,21.32
2018-08-20T06:24:05.031Z,21.42
2018-08-20T06:26:33.770Z,21.44
2018-08-20T06:29:02.595Z,21.50
2018-08-20T06:31:31.423Z,21.57
2018-08-20T06:34:00.284Z,21.68
2018-08-20T06:36:29.026Z,21.75
2018-08-20T06:38:57.743Z,21.82
2018-08-20T06:41:26.600Z,21.97
2018-08-20T06:43:55.604Z,22.00
2018-08-20T06:46:24.399Z,22.09
2018-08-20T06:48:53.227Z,22.14
2018-08-20T06:51:21.962Z,22.19
2018-08-20T06:53:50.687Z,22.31
2018-08-20T06:56:19.732Z,22.42
2018-08-20T06:58:48.544Z,22.55
2018-08-20T07:01:17.413Z,22.67
2018-08-20T07:03:46.266Z,22.82
2018-08-20T07:06:14.986Z,22.91
2018-08-20T07:08:43.711Z,23.00
2018-08-20T07:11:12.595Z,23.08
2018-08-20T07:13:41.448Z,23.02
2018-08-20T07:16:10.287Z,23.20
2018-08-20T07:18:39.047Z,23.29
2018-08-20T07:21:07.868Z,23.39
2018-08-20T07:23:36.755Z,23.47
2018-08-20T07:26:05.469Z,23.49
2018-08-20T07:28:34.244Z,23.65
2018-08-20T07:31:03.105Z,23.74
2018-08-20T07:33:31.891Z,23.76
2018-08-20T07:36:00.639Z,23.94
2018-08-20T07:38:29.428Z,24.03
2018-08-20T07:40:58.191Z,24.07
2018-08-20T07:43:26.954Z,23.99
2018-08-20T07:45:55.680Z,23.95
2018-08-20T07:48:24.553Z,23.98
2018-08-20T07:50:53.318Z,24.05
2018-08-20T07:53:22.024Z,24.18
2018-08-20T07:55:50.764Z,24.28
2018-08-20T07:58:19.574Z,24.42
2018-08-20T08:00:48.322Z,24.37
2018-08-20T08:03:21.271Z,24.48
2018-08-20T08:05:50.045Z,24.66
2018-08-20T08:08:18.815Z,24.84
2018-08-20T08:10:47.608Z,24.96
2018-08-20T08:13:16.411Z,25.01
2018-08-20T08:15:45.115Z,25.21
2018-08-20T08:18:13.882Z,25.27
2018-08-20T08:20:42.719Z,25.36
2018-08-20T08:23:11.458Z,25.49
2018-08-20T08:25:40.307Z,25.48
2018-08-20T08:28:09.120Z,25.71
2018-08-20T08:30:38.030Z,25.79
2018-08-20T08:33:06.898Z,25.89
2018-08-20T08:35:35.663Z,25.97
2018-08-20T08:38:04.508Z,26.06
2018-08-20T08:40:33.262Z,26.21
2018-08-20T08:43:02.052Z,26.32
2018-08-20T08:45:30.841Z,26.43
2018-08-20T08:47:59.603Z,26.48
2018-08-20T08:50:28.330Z,26.63
2018-08-20T08:52:57.115Z,26.73
2018-08-20T08:55:25.836Z,26.78
2018-08-20T08:57:54.546Z,26.93
2018-08-20T09:00:23.332Z,27.05
2018-08-20T09:02:52.131Z,27.17
2018-08-20T09:05:20.906Z,27.16
2018-08-20T09:07:49.777Z,27.19
2018-08-20T09:10:18.576Z,27.38
2018-08-20T09:12:47.322Z,27.44
2018-08-20T09:15:17.317Z,27.54
2018-08-20T09:17:46.302Z,27.46
2018-08-20T09:20:16.412Z,27.47
2018-08-20T09:22:45.346Z,27.41
2018-08-20T09:25:14.911Z,27.58
2018-08-20T09:27:44.735Z,27.60
2018-08-20T09:30:17.428Z,27.66
2018-08-20T09:32:47.281Z,27.70
2018-08-20T09:35:16.069Z,27.92
2018-08-20T09:37:44.820Z,28.07
2018-08-20T09:40:14.024Z,28.26
2018-08-20T09:42:43.293Z,28.32
2018-08-20T09:45:12.062Z,28.36
2018-08-20T09:47:41.712Z,28.37
2018-08-20T09:50:12.353Z,27.99
2018-08-20T09:52:41.100Z,27.70
2018-08-20T09:55:10.423Z,27.70
2018-08-20T09:57:39.316Z,27.63
2018-08-20T10:00:12.067Z,27.61
2018-08-20T10:02:40.904Z,27.55
2018-08-20T10:05:09.841Z,27.64
2018-08-20T10:07:38.608Z,27.66
2018-08-20T10:10:07.566Z,27.73
2018-08-20T10:12:36.335Z,27.76
2018-08-20T10:15:05.266Z,27.86
2018-08-20T10:17:34.118Z,27.84
2018-08-20T10:20:02.870Z,27.83
2018-08-20T10:22:31.606Z,27.77
2018-08-20T10:25:00.422Z,27.36
2018-08-20T10:27:29.218Z,26.97
2018-08-20T10:29:57.972Z,27.06
2018-08-20T10:32:26.810Z,26.84
2018-08-20T10:34:55.642Z,26.72
2018-08-20T10:37:24.458Z,26.78
2018-08-20T10:39:53.263Z,26.83
2018-08-20T10:42:22.044Z,26.99
2018-08-20T10:45:57.792Z,26.87
2018-08-20T10:48:26.559Z,26.95
2018-08-20T10:50:55.303Z,26.94
2018-08-20T10:53:24.322Z,27.09
2018-08-20T10:55:53.070Z,27.22
2018-08-20T10:58:21.867Z,27.25
2018-08-20T11:00:50.591Z,27.35
2018-08-20T11:03:19.376Z,27.41
2018-08-20T11:05:48.194Z,27.33
2018-08-20T11:08:17.106Z,27.42
2018-08-20T11:10:45.889Z,27.23
2018-08-20T11:13:14.634Z,27.11
2018-08-20T11:15:43.419Z,26.86
2018-08-20T11:18:12.127Z,26.74
2018-08-20T11:20:40.896Z,26.36
2018-08-20T11:23:09.694Z,26.02
2018-08-20T11:25:38.818Z,26.25
2018-08-20T11:28:07.715Z,26.39
2018-08-20T11:30:36.504Z,26.51
2018-08-20T11:33:05.315Z,26.57
2018-08-20T11:35:34.045Z,26.56
2018-08-20T11:38:02.904Z,26.47
2018-08-20T11:40:31.620Z,25.92
2018-08-20T11:43:00.351Z,25.05
2018-08-20T11:45:29.099Z,24.67
2018-08-20T11:47:57.914Z,24.22
2018-08-20T11:50:26.676Z,23.50
2018-08-20T11:52:56.743Z,22.72
2018-08-20T11:55:25.504Z,22.19
2018-08-20T11:57:54.328Z,21.69
2018-08-20T12:00:23.139Z,21.51
2018-08-20T12:02:52.319Z,21.46
2018-08-20T12:05:21.080Z,21.40
2018-08-20T12:07:50.235Z,21.46
2018-08-20T12:10:19.954Z,21.71
2018-08-20T12:12:48.688Z,21.43
2018-08-20T12:15:17.398Z,21.44
2018-08-20T12:17:46.099Z,21.55
2018-08-20T12:20:14.785Z,21.79
2018-08-20T12:22:43.514Z,22.05
2018-08-20T12:25:14.473Z,22.23
2018-08-20T12:27:43.502Z,22.20
2018-08-20T12:30:15.820Z,22.48
2018-08-20T12:32:44.499Z,22.73
2018-08-20T12:35:13.211Z,22.70
2018-08-20T12:37:42.219Z,22.79
2018-08-20T12:40:11.012Z,22.89
2018-08-20T12:42:39.754Z,22.94
2018-08-20T12:45:08.944Z,22.82
2018-08-20T12:47:37.675Z,22.84
2018-08-20T12:50:06.726Z,22.86
2018-08-20T12:52:35.574Z,22.84
2018-08-20T12:55:04.371Z,22.94
2018-08-20T12:57:33.279Z,23.00
2018-08-20T13:00:02.059Z,23.11
2018-08-20T13:02:30.856Z,23.07
2018-08-20T13:04:59.567Z,23.08
2018-08-20T13:07:28.325Z,23.13
2018-08-20T13:09:57.100Z,23.20
2018-08-20T13:12:25.954Z,23.18
2018-08-20T13:14:54.686Z,23.26
2018-08-20T13:17:23.442Z,23.21
2018-08-20T13:19:52.224Z,23.33
2018-08-20T13:22:21.859Z,23.44
2018-08-20T13:24:50.657Z,23.49
2018-08-20T13:27:19.394Z,23.69
2018-08-20T13:29:48.135Z,23.84
2018-08-20T13:32:16.859Z,23.91
2018-08-20T13:34:45.623Z,23.99
2018-08-20T13:37:14.398Z,24.16
2018-08-20T13:39:43.274Z,24.31
2018-08-20T13:42:12.008Z,24.34
2018-08-20T13:44:40.778Z,24.50
2018-08-20T13:47:09.594Z,24.55
2018-08-20T13:49:38.469Z,24.42
2018-08-20T13:52:07.299Z,24.51
2018-08-20T13:54:36.096Z,24.67
2018-08-20T13:57:04.904Z,24.58
2018-08-20T13:59:33.721Z,24.59
2018-08-20T14:02:02.470Z,24.67
2018-08-20T14:04:31.211Z,24.65
2018-08-20T14:06:59.995Z,24.74
2018-08-20T14:09:28.815Z,24.81
2018-08-20T14:11:57.566Z,24.88
2018-08-20T14:14:26.351Z,24.93
2018-08-20T14:16:55.142Z,24.93
2018-08-20T14:19:23.822Z,25.01
2018-08-20T14:21:52.611Z,25.09
2018-08-20T14:24:21.369Z,25.12
2018-08-20T14:26:50.174Z,25.18
2018-08-20T14:29:18.877Z,25.28
2018-08-20T14:31:48.580Z,25.23
2018-08-20T14:34:17.321Z,25.26
2018-08-20T14:36:46.088Z,25.32
2018-08-20T14:39:14.949Z,25.25
2018-08-20T14:41:43.613Z,25.24
2018-08-20T14:44:12.387Z,25.25
2018-08-20T14:46:41.105Z,25.25
2018-08-20T14:49:09.856Z,25.23
2018-08-20T14:51:38.609Z,25.34
2018-08-20T14:54:07.394Z,25.43
2018-08-20T14:56:36.214Z,25.45
2018-08-20T14:59:05.011Z,25.64
2018-08-20T15:01:33.782Z,25.83
2018-08-20T15:04:02.537Z,25.90
2018-08-20T15:06:31.326Z,26.18
2018-08-20T15:09:00.090Z,26.51
2018-08-20T15:11:28.856Z,26.66
2018-08-20T15:13:57.583Z,26.94
2018-08-20T15:16:26.276Z,27.42
2018-08-20T15:18:55.150Z,27.93
2018-08-20T15:21:23.946Z,28.11
2018-08-20T15:23:52.645Z,28.66
2018-08-20T15:26:21.448Z,28.80
2018-08-20T15:28:50.177Z,29.00
2018-08-20T15:31:18.910Z,28.61
2018-08-20T15:33:47.650Z,28.13
2018-08-20T15:36:16.403Z,27.72
2018-08-20T15:38:45.139Z,27.51
2018-08-20T15:41:13.866Z,27.62
2018-08-20T15:43:42.616Z,27.88
2018-08-20T15:46:11.444Z,28.16
2018-08-20T15:48:40.225Z,28.36
2018-08-20T15:51:08.952Z,28.61
2018-08-20T15:53:37.703Z,28.15
2018-08-20T15:56:06.608Z,28.70
2018-08-20T15:58:35.369Z,29.05
2018-08-20T16:01:04.204Z,29.19
2018-08-20T16:04:03.783Z,28.97
2018-08-20T16:06:32.469Z,28.82
2018-08-20T16:09:01.186Z,28.45
2018-08-20T16:11:29.883Z,28.13
2018-08-20T16:13:58.589Z,27.88
2018-08-20T16:16:27.384Z,27.53
2018-08-20T16:18:56.121Z,27.36
2018-08-20T16:21:24.922Z,27.08
2018-08-20T16:23:53.620Z,27.08
2018-08-20T16:26:22.347Z,26.94
2018-08-20T16:28:51.061Z,26.91
2018-08-20T16:31:19.770Z,26.97
2018-08-20T16:33:48.503Z,26.99
2018-08-20T16:36:17.271Z,27.09
2018-08-20T16:38:46.015Z,27.02
2018-08-20T16:41:14.722Z,26.94
2018-08-20T16:43:43.484Z,26.81
2018-08-20T16:46:12.212Z,26.56
2018-08-20T16:48:40.911Z,26.10
2018-08-20T16:51:09.690Z,25.97
2018-08-20T16:53:38.442Z,25.91
2018-08-20T16:56:07.455Z,25.81
2018-08-20T16:58:36.131Z,25.79
2018-08-20T17:01:04.954Z,25.57
2018-08-20T17:03:33.729Z,25.35
2018-08-20T17:06:02.420Z,25.18
2018-08-20T17:08:32.676Z,25.04
2018-08-20T17:11:01.433Z,24.90
2018-08-20T17:13:30.868Z,24.76
2018-08-20T17:15:59.683Z,24.51
2018-08-20T17:18:28.609Z,24.42
2018-08-20T17:20:57.432Z,24.34
2018-08-20T17:23:26.252Z,24.02
2018-08-20T17:25:56.505Z,24.02
2018-08-20T17:28:26.624Z,23.77
2018-08-20T17:30:57.562Z,23.58
2018-08-20T17:33:29.671Z,23.42
2018-08-20T17:35:58.380Z,23.42
2018-08-20T17:38:27.152Z,23.33
2018-08-20T17:40:56.011Z,23.13
2018-08-20T17:43:24.798Z,22.99
2018-08-20T17:45:55.374Z,23.09
2018-08-20T17:48:31.314Z,22.84
2018-08-20T17:51:00.326Z,22.57
2018-08-20T17:53:40.255Z,22.64
2018-08-20T17:56:09.005Z,22.31
2018-08-20T17:58:37.701Z,22.25
2018-08-20T18:01:06.565Z,22.22
2018-08-20T18:03:36.415Z,22.45
2018-08-20T18:06:09.582Z,22.55
2018-08-20T18:08:38.433Z,22.63
2018-08-20T18:11:08.227Z,22.65
2018-08-20T18:13:44.886Z,22.64
2018-08-20T18:16:14.926Z,22.59
2018-08-20T18:18:45.578Z,22.53
2018-08-20T18:21:14.348Z,22.51
2018-08-20T18:23:43.189Z,22.50
2018-08-20T18:26:12.112Z,22.52
2018-08-20T18:28:46.546Z,22.57
2018-08-20T18:31:19.262Z,22.52
2018-08-20T18:33:48.283Z,22.42
2018-08-20T18:38:52.211Z,22.27
2018-08-20T18:41:23.151Z,22.22
2018-08-20T18:43:51.942Z,22.05
2018-08-20T18:46:20.728Z,21.98
2018-08-20T18:48:49.426Z,21.91
2018-08-20T18:51:18.166Z,21.88
2018-08-20T18:53:46.952Z,21.92
2018-08-20T18:56:18.112Z,21.78
2018-08-20T18:58:46.932Z,21.75
2018-08-20T19:01:15.658Z,21.67
2018-08-20T19:03:48.708Z,21.68
2018-08-20T19:06:18.160Z,21.64
2018-08-20T19:08:46.974Z,21.69
2018-08-20T19:11:15.738Z,21.73
2018-08-20T19:13:44.556Z,21.66
2018-08-20T19:16:27.758Z,21.72
2018-08-20T19:18:56.631Z,21.76
2018-08-20T19:21:29.628Z,21.72
2018-08-20T19:24:00.482Z,21.70
2018-08-20T19:26:30.447Z,21.69
2018-08-20T19:29:00.933Z,21.67
2018-08-20T19:31:29.672Z,21.72
2018-08-20T19:33:58.504Z,21.63
2018-08-20T19:36:27.280Z,21.48
2018-08-20T19:38:56.030Z,21.46
2018-08-20T19:41:24.843Z,21.44
2018-08-20T19:43:53.604Z,21.42
2018-08-20T19:46:30.129Z,21.34
2018-08-20T19:49:04.713Z,21.38
2018-08-20T19:51:35.806Z,21.38
2018-08-20T19:54:04.667Z,21.35
2018-08-20T19:56:33.442Z,21.14
2018-08-20T19:59:02.210Z,21.15
2018-08-20T20:01:31.001Z,20.91
2018-08-20T20:03:59.832Z,21.02
2018-08-20T20:06:28.599Z,20.88
2018-08-20T20:08:57.920Z,20.79
2018-08-20T20:11:30.671Z,20.86
2018-08-20T20:14:01.355Z,20.83
2018-08-20T20:16:40.218Z,20.76
2018-08-20T20:19:10.013Z,20.70
2018-08-20T20:21:39.049Z,20.77
2018-08-20T20:24:09.104Z,20.80
2018-08-20T20:26:37.892Z,20.78
2018-08-20T20:29:07.886Z,20.76
2018-08-20T20:31:37.184Z,20.73
2018-08-20T20:34:06.033Z,20.64
2018-08-20T20:36:34.721Z,20.67
2018-08-20T20:39:03.621Z,20.75
2018-08-20T20:41:32.459Z,20.80
2018-08-20T20:44:01.237Z,20.86
2018-08-20T20:46:30.104Z,20.80
2018-08-20T20:48:58.881Z,20.72
2018-08-20T20:51:27.668Z,20.76
2018-08-20T20:53:56.477Z,20.82
2018-08-20T20:56:25.235Z,20.77
2018-08-20T20:58:54.040Z,20.76
2018-08-20T21:01:22.793Z,20.78
2018-08-20T21:03:51.676Z,20.77
2018-08-20T21:08:54.282Z,20.77
2018-08-20T21:11:23.386Z,20.73
2018-08-20T21:13:52.137Z,20.64
2018-08-20T21:16:25.366Z,20.62
2018-08-20T21:18:55.282Z,20.59
2018-08-20T21:21:24.469Z,20.61
2018-08-20T21:23:53.350Z,20.65
2018-08-20T21:26:22.124Z,20.64
2018-08-20T21:28:52.808Z,20.65
2018-08-20T21:31:22.830Z,20.63
2018-08-20T21:34:00.734Z,20.60
2018-08-20T21:36:29.572Z,20.50
2018-08-20T21:38:58.931Z,20.50
2018-08-20T21:41:28.955Z,20.51
2018-08-20T21:43:57.828Z,20.48
2018-08-20T21:46:26.590Z,20.50
2018-08-20T21:48:55.426Z,20.52
2018-08-20T21:51:27.574Z,20.51
2018-08-20T21:53:56.437Z,20.40
2018-08-20T21:56:25.648Z,20.42
2018-08-20T21:58:55.473Z,20.39
2018-08-20T22:01:24.342Z,20.29
2018-08-20T22:03:53.021Z,20.18
2018-08-20T22:06:21.768Z,20.14
2018-08-20T22:08:50.547Z,20.12
2018-08-20T22:11:19.312Z,20.10
2018-08-20T22:13:48.025Z,19.99
2018-08-20T22:16:22.168Z,20.09
2018-08-20T22:18:56.603Z,20.07
2018-08-20T22:21:25.695Z,20.09
2018-08-20T22:23:59.839Z,20.11
2018-08-20T22:26:28.696Z,19.97
2018-08-20T22:28:57.712Z,20.05
2018-08-20T22:31:26.534Z,19.84
2018-08-20T22:34:00.417Z,19.71
2018-08-20T22:36:30.612Z,19.65
2018-08-20T22:39:00.652Z,19.51
2018-08-20T22:41:30.479Z,19.55
2018-08-20T22:43:59.327Z,19.55
2018-08-20T22:46:28.032Z,19.55
2018-08-20T22:48:59.299Z,19.44
2018-08-20T22:51:29.106Z,19.50
2018-08-20T22:54:00.414Z,19.55
2018-08-20T22:56:30.907Z,19.54
2018-08-20T22:59:01.175Z,19.56
2018-08-20T23:01:30.100Z,19.54
2018-08-20T23:03:58.930Z,19.56
2018-08-20T23:06:27.686Z,19.52
2018-08-20T23:08:56.403Z,19.48
2018-08-20T23:11:38.161Z,19.47
2018-08-20T23:14:08.622Z,19.41
2018-08-20T23:16:37.665Z,19.40
2018-08-20T23:19:06.564Z,19.30
2018-08-20T23:21:39.428Z,19.31
2018-08-20T23:24:08.564Z,19.28
2018-08-20T23:26:37.368Z,19.25
2018-08-20T23:29:06.147Z,19.35
2018-08-20T23:31:34.875Z,19.39
2018-08-20T23:34:03.688Z,19.45
2018-08-20T23:36:32.477Z,19.40
2018-08-20T23:39:01.215Z,19.41
2018-08-20T23:41:29.923Z,19.33
2018-08-20T23:43:59.695Z,19.19
2018-08-20T23:46:39.608Z,19.10
2018-08-20T23:49:08.366Z,19.11
2018-08-20T23:51:37.191Z,19.07
2018-08-20T23:54:06.089Z,18.95
2018-08-20T23:56:34.860Z,18.91
2018-08-20T23:59:03.610Z,18.86
